Time;durP1;ratioP1;P1;durP2;ratioP2;P2;SDS_P1;SDS_P2;PMS_P1;PMS_P2;Temp;Humidity;BMP_temperature;BMP_pressure;BME280_temperature;BME280_humidity;BME280_pressure;Samples;Min_cycle;Max_cycle;Signal;HPM_P1;HPM_P2
2022/04/24 00:01:12;;;;;;;6.63;4.88;;;;;;;12.35;53.56;100051.44;5357024;27;20499;-63
2022/04/24 00:03:43;;;;;;;7.15;4.70;;;;;;;12.29;53.23;100057.38;5352518;27;20038;-61
2022/04/24 00:06:14;;;;;;;6.70;4.90;;;;;;;12.25;53.40;100057.81;5356685;27;20035;-61
2022/04/24 00:08:46;;;;;;;5.82;4.70;;;;;;;12.26;54.84;100054.16;5350985;27;20113;-61
2022/04/24 00:11:17;;;;;;;6.18;4.90;;;;;;;12.10;53.64;100054.75;5356878;27;20026;-61
2022/04/24 00:13:49;;;;;;;7.63;4.90;;;;;;;12.04;54.41;100050.00;5352214;27;20044;-61
2022/04/24 00:16:20;;;;;;;7.80;4.78;;;;;;;11.96;53.36;100054.25;5348376;27;20070;-61
2022/04/24 00:18:51;;;;;;;7.93;5.05;;;;;;;11.92;55.70;100047.50;5356151;27;20053;-61
2022/04/24 00:21:22;;;;;;;5.65;4.85;;;;;;;11.87;53.90;100057.78;5350412;27;20030;-61
2022/04/24 00:23:54;;;;;;;7.47;5.00;;;;;;;11.75;54.05;100046.44;5354639;27;20023;-61
2022/04/24 00:26:25;;;;;;;7.40;5.00;;;;;;;11.68;55.48;100047.16;5354816;27;20172;-61
2022/04/24 00:28:56;;;;;;;6.57;5.05;;;;;;;11.62;54.82;100045.91;5361623;27;20018;-61
2022/04/24 00:31:27;;;;;;;5.95;4.88;;;;;;;11.54;55.69;100043.94;5349810;27;20022;-61
2022/04/24 00:33:59;;;;;;;6.72;5.43;;;;;;;11.52;55.61;100035.19;5352797;27;20019;-61
2022/04/24 00:36:30;;;;;;;6.00;4.57;;;;;;;11.39;56.13;100037.34;5346651;27;21957;-61
2022/04/24 00:39:01;;;;;;;7.28;5.30;;;;;;;11.38;56.41;100041.00;5360474;27;20030;-61
2022/04/24 00:41:33;;;;;;;6.05;5.10;;;;;;;11.24;56.09;100038.75;5357499;27;20031;-61
2022/04/24 00:44:04;;;;;;;6.78;5.20;;;;;;;11.16;57.23;100034.13;5353054;27;20019;-61
2022/04/24 00:47:01;;;;;;;7.60;5.57;;;;;;;11.14;56.55;100042.28;5359037;27;20031;-61
2022/04/24 00:49:33;;;;;;;7.10;5.53;;;;;;;11.10;57.68;100037.34;5354960;27;20027;-61
2022/04/24 00:52:04;;;;;;;6.28;5.40;;;;;;;11.03;58.32;100041.59;5356104;27;20022;-61
2022/04/24 00:54:36;;;;;;;9.13;5.82;;;;;;;10.92;58.53;100034.56;5351387;27;20099;-61
2022/04/24 00:57:09;;;;;;;8.95;5.50;;;;;;;10.92;58.50;100037.22;5351959;27;20628;-61
2022/04/24 00:59:40;;;;;;;6.57;5.35;;;;;;;10.82;58.02;100031.88;5355507;27;20027;-61
2022/04/24 01:02:11;;;;;;;8.05;5.88;;;;;;;10.84;58.48;100029.06;5352688;27;20029;-61
2022/04/24 01:04:43;;;;;;;6.57;5.30;;;;;;;10.77;59.08;100040.28;5355678;27;20033;-61
2022/04/24 01:07:14;;;;;;;6.57;5.45;;;;;;;10.66;58.17;100036.91;5362541;27;20292;-61
2022/04/24 01:09:45;;;;;;;8.45;6.05;;;;;;;10.55;59.76;100038.72;5350657;27;20042;-61
2022/04/24 01:12:17;;;;;;;7.55;5.95;;;;;;;10.50;59.09;100037.44;5355118;27;20454;-61
2022/04/24 01:14:48;;;;;;;8.65;6.00;;;;;;;10.52;59.55;100033.66;5344299;27;20073;-61
2022/04/24 01:17:19;;;;;;;7.18;5.95;;;;;;;10.40;60.69;100030.25;5351524;27;20129;-62
2022/04/24 01:19:51;;;;;;;6.60;5.63;;;;;;;10.38;59.58;100034.03;5354607;27;20030;-61
2022/04/24 01:22:22;;;;;;;7.25;6.00;;;;;;;10.30;59.59;100042.72;5352420;27;20058;-62
2022/04/24 01:24:53;;;;;;;7.15;6.00;;;;;;;10.31;59.75;100038.22;5346200;27;20102;-61
2022/04/24 01:27:25;;;;;;;7.13;5.60;;;;;;;10.24;60.13;100037.03;5347346;27;20054;-61
2022/04/24 01:29:56;;;;;;;7.75;6.15;;;;;;;10.19;60.23;100051.63;5346633;27;20401;-61
2022/04/24 01:32:27;;;;;;;7.97;5.88;;;;;;;10.21;60.64;100048.81;5351001;27;20034;-62
2022/04/24 01:34:58;;;;;;;7.15;5.60;;;;;;;10.20;60.57;100044.47;5349944;27;20042;-62
2022/04/24 01:37:30;;;;;;;7.68;5.60;;;;;;;10.14;61.17;100045.00;5352179;27;20459;-62
2022/04/24 01:40:01;;;;;;;9.57;6.72;;;;;;;10.18;60.82;100041.09;5349667;27;20477;-61
2022/04/24 01:42:32;;;;;;;8.32;5.90;;;;;;;10.13;60.86;100040.66;5357719;27;20499;-61
2022/04/24 01:45:05;;;;;;;9.25;6.90;;;;;;;10.09;60.77;100044.59;5344697;27;20993;-61
2022/04/24 01:47:36;;;;;;;6.78;5.57;;;;;;;10.11;61.37;100042.63;5345564;27;20089;-61
2022/04/24 01:50:07;;;;;;;9.80;6.30;;;;;;;10.07;61.06;100047.38;5351603;27;20121;-61
2022/04/24 01:52:39;;;;;;;9.68;6.55;;;;;;;10.01;61.39;100037.25;5344324;27;20035;-62
2022/04/24 01:55:10;;;;;;;7.53;5.88;;;;;;;10.04;61.67;100036.13;5346470;27;20360;-61
2022/04/24 01:57:41;;;;;;;8.38;5.97;;;;;;;9.98;61.77;100048.16;5347904;27;20137;-61
2022/04/24 02:00:13;;;;;;;7.55;6.63;;;;;;;9.94;62.11;100047.59;5333742;27;20035;-61
2022/04/24 02:02:46;;;;;;;8.65;6.57;;;;;;;9.92;61.91;100044.22;5348700;27;20034;-61
2022/04/24 02:05:17;;;;;;;9.55;6.20;;;;;;;9.87;61.90;100043.75;5351730;27;20389;-62
2022/04/24 02:07:49;;;;;;;10.60;6.60;;;;;;;9.84;61.73;100033.38;5351849;27;21127;-62
2022/04/24 02:10:20;;;;;;;9.40;5.88;;;;;;;9.85;62.75;100036.88;5356252;27;20114;-61
2022/04/24 02:12:51;;;;;;;8.70;6.30;;;;;;;9.80;63.68;100038.13;5348440;27;20034;-61
2022/04/24 02:15:23;;;;;;;7.63;6.10;;;;;;;9.80;62.29;100050.63;5353277;27;20406;-61
2022/04/24 02:17:55;;;;;;;8.75;6.70;;;;;;;9.75;62.81;100040.34;5349270;27;20438;-62
2022/04/24 02:20:28;;;;;;;11.48;6.40;;;;;;;9.72;61.97;100045.09;5355935;27;20068;-62
2022/04/24 02:23:00;;;;;;;7.80;6.53;;;;;;;9.73;62.15;100042.28;5351485;27;20750;-61
2022/04/24 02:25:32;;;;;;;8.73;6.95;;;;;;;9.76;62.26;100043.84;5350059;27;20113;-61
2022/04/24 02:28:04;;;;;;;7.18;6.45;;;;;;;9.74;62.68;100044.00;5354350;27;20560;-61
2022/04/24 02:30:35;;;;;;;8.77;6.90;;;;;;;9.74;62.70;100048.47;5347743;27;20030;-62
2022/04/24 02:33:06;;;;;;;8.68;6.47;;;;;;;9.72;62.90;100040.63;5349531;27;20022;-62
2022/04/24 02:35:38;;;;;;;8.68;6.47;;;;;;;9.75;63.22;100042.16;5356209;27;20384;-62
2022/04/24 02:38:09;;;;;;;8.18;6.68;;;;;;;9.74;62.80;100043.13;5342234;27;20042;-61
2022/04/24 02:40:40;;;;;;;8.10;6.38;;;;;;;9.72;62.92;100045.09;5346593;27;20496;-62
2022/04/24 02:43:11;;;;;;;8.45;6.88;;;;;;;9.72;63.13;100045.94;5348956;27;20575;-61
2022/04/24 02:45:43;;;;;;;8.27;6.88;;;;;;;9.75;62.86;100042.16;5351943;27;20287;-62
2022/04/24 02:48:14;;;;;;;9.00;6.70;;;;;;;9.75;62.76;100044.84;5347543;27;20364;-61
2022/04/24 02:50:46;;;;;;;8.20;6.72;;;;;;;9.78;63.99;100044.59;5349451;27;20023;-62
2022/04/24 02:53:17;;;;;;;8.63;7.10;;;;;;;9.75;63.63;100047.50;5339916;27;20159;-62
2022/04/24 02:55:48;;;;;;;7.50;6.70;;;;;;;9.78;62.63;100048.06;5349316;27;20037;-62
2022/04/24 02:58:21;;;;;;;7.95;7.15;;;;;;;9.82;62.83;100046.00;5344621;27;20022;-62
2022/04/24 03:00:54;;;;;;;9.07;7.40;;;;;;;9.80;63.15;100050.63;5342098;27;20483;-62
2022/04/24 03:03:25;;;;;;;8.98;7.20;;;;;;;9.85;62.75;100043.06;5346198;27;20023;-62
2022/04/24 03:05:57;;;;;;;10.38;7.53;;;;;;;9.84;63.07;100051.16;5344490;27;20034;-62
2022/04/24 03:08:28;;;;;;;9.93;8.00;;;;;;;9.82;62.82;100052.16;5341257;27;20651;-62
2022/04/24 03:10:59;;;;;;;8.57;7.68;;;;;;;9.83;63.07;100055.66;5347677;27;20030;-62
2022/04/24 03:13:31;;;;;;;10.93;7.90;;;;;;;9.80;63.03;100050.63;5344673;27;20586;-62
2022/04/24 03:16:02;;;;;;;10.27;7.80;;;;;;;9.75;63.14;100055.50;5342590;27;20373;-62
2022/04/24 03:18:33;;;;;;;12.73;7.82;;;;;;;9.71;63.79;100046.91;5343200;27;20140;-62
2022/04/24 03:21:05;;;;;;;9.05;7.68;;;;;;;9.65;64.76;100055.44;5349835;27;20026;-62
2022/04/24 03:23:36;;;;;;;9.75;8.55;;;;;;;9.57;64.05;100050.75;5349955;27;20114;-62
2022/04/24 03:26:07;;;;;;;9.27;8.00;;;;;;;9.58;64.62;100054.25;5354892;27;20083;-62
2022/04/24 03:28:40;;;;;;;8.98;7.75;;;;;;;9.46;64.17;100061.47;5356300;27;20029;-62
2022/04/24 03:31:12;;;;;;;9.35;7.78;;;;;;;9.40;64.32;100056.69;5354726;27;20365;-62
2022/04/24 03:33:43;;;;;;;10.50;8.25;;;;;;;9.37;64.81;100054.25;5349848;27;20023;-62
2022/04/24 03:36:15;;;;;;;10.43;8.23;;;;;;;9.31;64.64;100052.13;5358780;27;20026;-62
2022/04/24 03:38:46;;;;;;;11.05;8.70;;;;;;;9.21;65.02;100065.34;5349520;27;20072;-62
2022/04/24 03:41:17;;;;;;;9.43;8.18;;;;;;;9.17;65.39;100063.94;5358595;27;20022;-62
2022/04/24 03:43:49;;;;;;;10.30;8.15;;;;;;;9.11;65.59;100061.75;5351545;27;20056;-63
2022/04/24 03:46:20;;;;;;;10.18;8.88;;;;;;;9.03;66.31;100062.38;5352938;27;20030;-62
2022/04/24 03:48:51;;;;;;;11.77;8.90;;;;;;;8.98;67.02;100056.63;5348859;27;20451;-62
2022/04/24 03:51:22;;;;;;;11.00;8.38;;;;;;;8.95;66.59;100048.88;5352216;27;21120;-62
2022/04/24 03:53:54;;;;;;;10.00;8.10;;;;;;;8.90;66.58;100059.91;5351456;27;20413;-62
2022/04/24 03:56:25;;;;;;;10.80;8.82;;;;;;;8.87;67.47;100054.00;5356133;27;20426;-62
2022/04/24 03:58:56;;;;;;;12.73;8.52;;;;;;;8.76;67.30;100060.19;5351497;27;20034;-62
2022/04/24 04:01:27;;;;;;;10.73;7.90;;;;;;;8.72;67.98;100061.41;5353657;27;20034;-62
2022/04/24 04:03:59;;;;;;;11.05;8.63;;;;;;;8.73;68.73;100055.13;5355994;27;20034;-62
2022/04/24 04:06:30;;;;;;;10.43;8.90;;;;;;;8.68;68.11;100052.00;5351995;27;20198;-62
2022/04/24 04:09:01;;;;;;;11.10;9.00;;;;;;;8.66;69.25;100056.59;5343675;27;20042;-62
2022/04/24 04:11:33;;;;;;;10.27;8.75;;;;;;;8.59;68.50;100058.88;5344377;27;20070;-62
2022/04/24 04:14:04;;;;;;;11.82;8.82;;;;;;;8.49;69.34;100049.97;5353992;27;20106;-62
2022/04/24 04:16:36;;;;;;;11.57;8.93;;;;;;;8.52;70.09;100055.06;5343491;27;20027;-62
2022/04/24 04:19:07;;;;;;;11.18;8.95;;;;;;;8.51;70.58;100056.84;5355034;27;20027;-62
2022/04/24 04:21:38;;;;;;;10.95;9.15;;;;;;;8.40;70.03;100060.34;5352032;27;20034;-62
2022/04/24 04:24:09;;;;;;;10.60;9.45;;;;;;;8.49;70.81;100064.09;5359133;27;20045;-62
2022/04/24 04:26:41;;;;;;;10.95;8.88;;;;;;;8.40;70.55;100065.66;5350629;27;20485;-62
2022/04/24 04:29:12;;;;;;;11.43;9.13;;;;;;;8.38;70.82;100064.94;5356278;27;20031;-62
2022/04/24 04:31:44;;;;;;;11.75;8.70;;;;;;;8.36;70.91;100066.03;5353904;27;20030;-62
2022/04/24 04:34:15;;;;;;;11.13;8.75;;;;;;;8.30;71.29;100066.50;5350968;27;20023;-62
2022/04/24 04:36:46;;;;;;;11.50;9.02;;;;;;;8.25;71.57;100078.34;5347221;27;20257;-62
2022/04/24 04:39:18;;;;;;;13.63;9.82;;;;;;;8.26;71.98;100081.84;5341943;27;20034;-62
2022/04/24 04:41:49;;;;;;;10.98;8.93;;;;;;;8.21;72.53;100074.25;5351959;27;20099;-62
2022/04/24 04:44:20;;;;;;;12.95;9.18;;;;;;;8.20;72.52;100085.84;5354454;27;20097;-62
2022/04/24 04:46:52;;;;;;;11.75;9.23;;;;;;;8.15;72.52;100079.19;5350235;27;20101;-62
2022/04/24 04:49:23;;;;;;;11.43;8.90;;;;;;;8.17;73.02;100072.81;5352798;27;20030;-62
2022/04/24 04:51:54;;;;;;;10.45;8.82;;;;;;;8.12;72.88;100082.94;5355671;27;20037;-62
2022/04/24 04:54:25;;;;;;;11.90;9.73;;;;;;;8.12;73.63;100092.75;5352079;27;20023;-62
2022/04/24 04:56:57;;;;;;;11.38;8.80;;;;;;;8.09;73.20;100087.66;5353096;27;20377;-62
2022/04/24 04:59:28;;;;;;;11.93;9.68;;;;;;;8.11;73.21;100081.28;5352322;27;20027;-62
2022/04/24 05:01:59;;;;;;;11.15;9.18;;;;;;;8.09;73.54;100085.00;5351871;27;20122;-62
2022/04/24 05:04:30;;;;;;;10.85;8.57;;;;;;;8.12;73.72;100093.56;5353411;27;20027;-62
2022/04/24 05:07:02;;;;;;;11.00;9.07;;;;;;;8.11;73.82;100091.03;5351786;27;20058;-62
2022/04/24 05:09:33;;;;;;;11.40;9.27;;;;;;;8.14;73.91;100096.13;5345877;27;20031;-62
2022/04/24 05:12:06;;;;;;;11.30;9.07;;;;;;;8.12;74.30;100098.91;5352096;27;20064;-62
2022/04/24 05:14:37;;;;;;;12.07;8.52;;;;;;;8.12;74.20;100100.72;5353962;27;20035;-62
2022/04/24 05:17:09;;;;;;;11.85;9.07;;;;;;;8.16;74.29;100110.13;5350428;27;20054;-62
2022/04/24 05:19:40;;;;;;;11.50;8.65;;;;;;;8.14;74.66;100107.59;5347386;27;20038;-62
2022/04/24 05:22:11;;;;;;;12.45;8.45;;;;;;;8.17;73.99;100111.81;5345719;27;20037;-62
2022/04/24 05:24:42;;;;;;;13.75;8.80;;;;;;;8.17;74.62;100111.81;5349977;27;20437;-62
2022/04/24 05:27:14;;;;;;;11.50;9.27;;;;;;;8.15;74.37;100114.59;5352876;27;20033;-62
2022/04/24 05:29:45;;;;;;;10.48;8.98;;;;;;;8.19;74.49;100116.06;5353133;27;20022;-62
2022/04/24 05:32:17;;;;;;;14.50;9.32;;;;;;;8.21;73.95;100115.94;5350212;27;20360;-62
2022/04/24 05:34:48;;;;;;;10.18;8.30;;;;;;;8.26;74.03;100111.09;5350853;27;20022;-62
2022/04/24 05:37:20;;;;;;;11.50;8.90;;;;;;;8.29;75.36;100110.84;5352482;27;20489;-62
2022/04/24 05:39:51;;;;;;;11.38;8.63;;;;;;;8.33;74.07;100120.28;5350604;27;20086;-62
2022/04/24 05:42:22;;;;;;;10.85;8.38;;;;;;;8.35;73.92;100123.66;5350119;27;20066;-62
2022/04/24 05:44:58;;;;;;;10.70;8.20;;;;;;;8.38;73.47;100126.09;5353941;27;20026;-62
2022/04/24 05:47:29;;;;;;;10.35;8.57;;;;;;;8.43;73.71;100123.91;5352465;27;20367;-62
2022/04/24 05:50:00;;;;;;;11.85;8.00;;;;;;;8.47;73.73;100129.00;5350082;27;20030;-62
2022/04/24 05:52:31;;;;;;;13.07;8.60;;;;;;;8.48;73.07;100120.06;5351428;27;21859;-62
2022/04/24 05:55:03;;;;;;;9.77;8.05;;;;;;;8.54;72.99;100131.06;5353306;27;20038;-62
2022/04/24 05:57:35;;;;;;;10.75;8.00;;;;;;;8.56;72.75;100122.97;5348957;27;20396;-62
2022/04/24 06:00:08;;;;;;;11.15;8.02;;;;;;;8.62;72.61;100127.78;5353181;27;20031;-62
2022/04/24 06:02:40;;;;;;;9.00;7.55;;;;;;;8.68;72.94;100127.28;5350749;27;20035;-62
2022/04/24 06:05:11;;;;;;;9.88;8.32;;;;;;;8.73;72.16;100141.06;5355023;27;20037;-62
2022/04/24 06:07:42;;;;;;;10.48;8.20;;;;;;;8.77;72.64;100134.53;5347918;27;20029;-62
2022/04/24 06:10:14;;;;;;;10.68;7.90;;;;;;;8.82;71.59;100144.78;5349773;27;20726;-62
2022/04/24 06:12:52;;;;;;;11.93;8.15;;;;;;;8.86;72.00;100140.06;5349691;27;20031;-62
2022/04/24 06:15:27;;;;;;;11.27;8.57;;;;;;;8.89;71.91;100148.66;5345212;27;20026;-62
2022/04/24 06:17:59;;;;;;;9.77;8.30;;;;;;;8.92;71.10;100156.41;5350449;27;20050;-62
2022/04/24 06:20:30;;;;;;;9.60;7.50;;;;;;;8.97;71.44;100148.88;5348806;27;20035;-62
2022/04/24 06:23:02;;;;;;;11.27;8.10;;;;;;;9.01;70.85;100138.81;5348293;27;20030;-62
2022/04/24 06:25:34;;;;;;;11.27;7.70;;;;;;;9.08;70.84;100145.34;5354692;27;20027;-62
2022/04/24 06:28:05;;;;;;;10.10;7.35;;;;;;;9.09;69.75;100144.41;5351872;27;20041;-63
2022/04/24 06:30:40;;;;;;;10.00;7.15;;;;;;;9.14;70.24;100144.00;5348696;27;20030;-62
2022/04/24 06:33:12;;;;;;;10.40;7.70;;;;;;;9.21;69.77;100147.88;5349060;27;20060;-62
2022/04/24 06:35:45;;;;;;;9.88;7.80;;;;;;;9.26;70.32;100153.63;5356720;27;20022;-62
2022/04/24 06:38:16;;;;;;;11.35;7.60;;;;;;;9.33;69.81;100149.50;5355458;27;20087;-62
2022/04/24 06:40:47;;;;;;;13.70;7.78;;;;;;;9.37;70.11;100148.28;5350937;27;20066;-62
2022/04/24 06:43:18;;;;;;;10.25;7.43;;;;;;;9.43;69.41;100160.25;5350836;27;20400;-62
2022/04/24 06:45:52;;;;;;;11.27;7.53;;;;;;;9.53;68.36;100155.00;5352537;27;20484;-62
2022/04/24 06:48:23;;;;;;;10.85;7.25;;;;;;;9.60;67.48;100149.03;5352685;27;20027;-62
2022/04/24 06:50:54;;;;;;;10.27;7.28;;;;;;;9.69;68.68;100159.91;5352306;27;20460;-62
2022/04/24 06:53:28;;;;;;;9.82;7.68;;;;;;;9.81;66.60;100161.53;5349857;27;20042;-62
2022/04/24 06:55:59;;;;;;;9.45;6.95;;;;;;;9.91;66.15;100159.75;5360643;27;20118;-62
2022/04/24 06:58:30;;;;;;;10.52;6.70;;;;;;;10.00;66.20;100164.31;5356285;27;20129;-63
2022/04/24 07:01:02;;;;;;;11.68;7.28;;;;;;;10.11;66.53;100168.75;5350730;27;20483;-62
2022/04/24 07:03:34;;;;;;;9.32;7.60;;;;;;;10.25;66.36;100158.72;5354768;27;20457;-62
2022/04/24 07:06:07;;;;;;;9.05;7.70;;;;;;;10.32;66.50;100162.56;5355452;27;20015;-62
2022/04/24 07:08:38;;;;;;;12.90;8.27;;;;;;;10.45;65.93;100159.66;5345452;27;20039;-62
2022/04/24 07:11:10;;;;;;;13.65;7.72;;;;;;;10.56;65.54;100152.41;5357773;27;20083;-62
2022/04/24 07:13:41;;;;;;;11.13;7.45;;;;;;;10.58;63.89;100157.63;5358306;27;20038;-62
2022/04/24 07:16:12;;;;;;;9.68;7.35;;;;;;;10.73;63.89;100158.94;5357419;27;20122;-62
2022/04/24 07:18:43;;;;;;;11.18;7.55;;;;;;;10.77;63.66;100156.84;5353597;27;20062;-62
2022/04/24 07:21:15;;;;;;;9.35;7.57;;;;;;;10.92;63.00;100163.50;5348311;27;20027;-62
2022/04/24 07:23:46;;;;;;;9.45;7.50;;;;;;;11.06;63.00;100161.41;5356489;27;20027;-62
2022/04/24 07:26:17;;;;;;;9.95;7.68;;;;;;;11.12;61.81;100163.53;5332028;27;20050;-62
2022/04/24 07:28:48;;;;;;;9.10;7.40;;;;;;;11.17;62.77;100162.13;5349196;27;20031;-62
2022/04/24 07:31:20;;;;;;;8.40;7.10;;;;;;;11.29;62.07;100157.50;5359714;27;20064;-62
2022/04/24 07:33:52;;;;;;;11.82;8.52;;;;;;;11.41;61.40;100166.25;5359868;27;20034;-62
2022/04/24 07:36:24;;;;;;;9.60;7.68;;;;;;;11.51;60.26;100171.59;5356151;27;20026;-62
2022/04/24 07:38:55;;;;;;;10.38;7.80;;;;;;;11.66;60.87;100177.34;5349036;27;20464;-62
2022/04/24 07:41:26;;;;;;;9.98;7.47;;;;;;;11.75;60.28;100169.34;5361832;27;20042;-63
2022/04/24 07:43:58;;;;;;;12.57;8.05;;;;;;;11.89;60.43;100172.56;5353210;27;20030;-62
2022/04/24 07:46:29;;;;;;;8.70;7.53;;;;;;;11.95;60.74;100167.53;5357913;27;20035;-62
2022/04/24 07:49:00;;;;;;;10.45;8.07;;;;;;;12.00;58.81;100175.09;5362860;27;20026;-63
2022/04/24 07:51:31;;;;;;;9.10;7.72;;;;;;;12.10;58.85;100172.41;5363252;27;20070;-62
2022/04/24 07:54:03;;;;;;;10.15;8.10;;;;;;;12.21;58.29;100177.59;5357310;27;20029;-63
2022/04/24 07:56:34;;;;;;;9.43;7.55;;;;;;;12.28;57.81;100180.56;5347247;27;20031;-62
2022/04/24 07:59:05;;;;;;;12.27;7.70;;;;;;;12.36;56.62;100173.47;5360415;27;20053;-63
2022/04/24 08:01:36;;;;;;;10.30;7.40;;;;;;;12.50;58.71;100174.88;5354065;27;20030;-63
2022/04/24 08:04:08;;;;;;;9.95;7.55;;;;;;;12.50;56.64;100180.22;5364348;27;20071;-64
2022/04/24 08:06:39;;;;;;;9.40;7.80;;;;;;;12.62;58.09;100177.31;5355477;27;20033;-63
2022/04/24 08:09:10;;;;;;;10.57;7.50;;;;;;;12.77;57.75;100183.03;5355519;27;20030;-63
2022/04/24 08:11:41;;;;;;;10.60;7.82;;;;;;;12.81;56.40;100187.09;5360059;27;20046;-63
2022/04/24 08:14:13;;;;;;;9.52;7.60;;;;;;;12.87;55.19;100189.22;5363984;27;20095;-63
2022/04/24 08:16:44;;;;;;;11.70;8.10;;;;;;;12.99;57.53;100193.38;5354862;27;20607;-63
2022/04/24 08:19:15;;;;;;;8.68;7.63;;;;;;;13.08;55.94;100194.31;5357778;27;20473;-63
2022/04/24 08:21:46;;;;;;;12.82;7.78;;;;;;;13.13;54.75;100189.34;5356373;27;20038;-63
2022/04/24 08:24:18;;;;;;;10.43;7.60;;;;;;;13.24;56.04;100190.97;5362958;27;20054;-63
2022/04/24 08:26:49;;;;;;;10.60;8.60;;;;;;;13.36;54.87;100192.47;5364412;27;20030;-63
2022/04/24 08:29:20;;;;;;;10.00;7.90;;;;;;;13.41;53.53;100184.00;5362388;27;20582;-63
2022/04/24 08:31:51;;;;;;;10.63;8.50;;;;;;;13.57;54.21;100186.81;5360797;27;20496;-63
2022/04/24 08:34:23;;;;;;;10.75;7.93;;;;;;;13.64;53.74;100201.28;5364037;27;20488;-63
2022/04/24 08:36:54;;;;;;;11.07;8.07;;;;;;;13.82;52.94;100195.91;5357655;27;20084;-63
2022/04/24 08:39:25;;;;;;;10.70;8.00;;;;;;;13.83;53.39;100184.19;5358258;27;20033;-63
2022/04/24 08:41:57;;;;;;;10.25;7.70;;;;;;;13.99;52.79;100198.75;5351874;27;20389;-63
2022/04/24 08:44:30;;;;;;;13.18;7.85;;;;;;;14.11;52.01;100208.22;5352481;27;20030;-63
2022/04/24 08:47:03;;;;;;;13.38;8.20;;;;;;;14.17;53.19;100202.25;5349945;27;20238;-63
2022/04/24 08:49:34;;;;;;;10.68;8.25;;;;;;;14.15;50.03;100192.66;5356195;27;20037;-64
2022/04/24 08:52:06;;;;;;;8.95;8.05;;;;;;;14.24;50.09;100191.72;5352311;27;21091;-63
2022/04/24 08:54:39;;;;;;;11.13;9.10;;;;;;;14.29;51.19;100197.47;5350683;27;20033;-63
2022/04/24 08:57:11;;;;;;;10.38;8.38;;;;;;;14.42;51.82;100205.94;5357845;27;20126;-63
2022/04/24 08:59:43;;;;;;;10.38;8.05;;;;;;;14.72;52.45;100201.09;5361279;27;20018;-63
2022/04/24 09:02:15;;;;;;;11.82;9.02;;;;;;;14.63;50.63;100213.66;5352416;27;20029;-63
2022/04/24 09:04:46;;;;;;;12.32;9.05;;;;;;;14.80;50.14;100202.97;5359054;27;20031;-64
2022/04/24 09:07:17;;;;;;;9.80;8.80;;;;;;;14.89;49.69;100199.31;5357768;27;20030;-63
2022/04/24 09:09:51;;;;;;;10.85;9.00;;;;;;;14.99;49.00;100207.25;5358793;27;20073;-63
2022/04/24 09:12:24;;;;;;;9.15;8.18;;;;;;;14.97;48.50;100199.34;5356339;27;20030;-62
2022/04/24 09:14:58;;;;;;;10.77;8.85;;;;;;;15.20;48.85;100196.91;5351277;27;20552;-63
2022/04/24 09:17:32;;;;;;;12.48;9.32;;;;;;;15.16;48.99;100197.41;5354707;27;20069;-63
2022/04/24 09:20:24;;;;;;;11.50;8.65;;;;;;;15.29;49.02;100204.00;5358895;27;20029;-63
2022/04/24 09:23:02;;;;;;;11.85;9.43;;;;;;;15.28;47.65;100196.94;5355497;27;20054;-63
2022/04/24 09:25:40;;;;;;;10.60;8.73;;;;;;;15.27;46.72;100197.94;5348313;27;20027;-63
2022/04/24 09:28:11;;;;;;;12.98;8.40;;;;;;;15.45;47.37;100197.81;5357016;27;20428;-64
2022/04/24 09:30:49;;;;;;;13.43;9.18;;;;;;;15.37;46.27;100203.16;5332233;27;20026;-64
2022/04/24 09:33:20;;;;;;;11.00;8.38;;;;;;;15.57;48.25;100216.31;5363698;27;20039;-62
2022/04/24 09:35:55;;;;;;;11.70;9.85;;;;;;;15.59;46.47;100198.16;5347323;27;20027;-64
2022/04/24 09:38:26;;;;;;;11.68;8.93;;;;;;;15.75;47.58;100197.41;5351608;27;20388;-63
2022/04/24 09:40:57;;;;;;;11.73;8.90;;;;;;;15.73;46.42;100202.06;5350244;27;20023;-63
2022/04/24 09:43:28;;;;;;;12.23;9.25;;;;;;;15.74;45.62;100196.53;5356243;27;20034;-62
2022/04/24 09:46:00;;;;;;;11.50;9.20;;;;;;;15.80;45.49;100203.09;5358448;27;20436;-63
2022/04/24 09:48:31;;;;;;;12.18;9.20;;;;;;;15.93;45.76;100195.38;5355777;27;20735;-63
2022/04/24 09:51:03;;;;;;;11.07;9.80;;;;;;;15.94;44.23;100193.53;5354736;27;20400;-63
2022/04/24 09:53:41;;;;;;;10.82;9.35;;;;;;;16.10;45.68;100198.88;5352762;27;20515;-63
2022/04/24 09:56:14;;;;;;;11.52;9.40;;;;;;;16.12;44.94;100201.41;5355327;27;20039;-62
2022/04/24 09:58:47;;;;;;;10.77;9.23;;;;;;;16.27;45.72;100210.50;5355263;27;20030;-62
2022/04/24 10:01:18;;;;;;;12.70;9.88;;;;;;;16.29;43.83;100195.00;5349370;27;20031;-62
2022/04/24 10:03:50;;;;;;;14.25;9.55;;;;;;;16.37;44.73;100200.38;5357170;27;20038;-62
2022/04/24 10:06:23;;;;;;;11.43;9.50;;;;;;;16.35;43.09;100207.78;5351272;27;20076;-62
2022/04/24 10:08:54;;;;;;;11.85;9.73;;;;;;;16.33;44.55;100200.88;5355443;27;20031;-63
2022/04/24 10:11:26;;;;;;;13.43;10.32;;;;;;;16.43;45.76;100191.63;5350138;27;20030;-63
2022/04/24 10:14:03;;;;;;;10.77;9.65;;;;;;;16.38;44.78;100203.91;5353961;27;20023;-63
2022/04/24 10:16:34;;;;;;;11.43;9.68;;;;;;;16.34;43.44;100207.94;5351406;27;20400;-63
2022/04/24 10:19:24;;;;;;;11.87;9.73;;;;;;;16.32;44.69;100194.69;5348323;27;20042;-63
2022/04/24 10:22:27;;;;;;;11.00;9.88;;;;;;;16.41;44.53;100192.78;5356209;27;20288;-63
2022/04/24 10:25:00;;;;;;;11.57;10.23;;;;;;;16.48;43.58;100207.25;5353012;27;20030;-63
2022/04/24 10:27:39;;;;;;;13.00;9.85;;;;;;;16.50;43.50;100210.63;5355908;27;20030;-63
2022/04/24 10:30:19;;;;;;;13.73;9.73;;;;;;;16.50;43.05;100205.22;5347941;27;20588;-63
2022/04/24 10:33:15;;;;;;;14.48;9.75;;;;;;;16.52;43.10;100211.28;5354339;27;20380;-63
2022/04/24 10:35:50;;;;;;;11.70;9.70;;;;;;;16.52;42.53;100213.16;5355683;27;20453;-64
2022/04/24 10:38:23;;;;;;;15.77;9.80;;;;;;;16.59;43.49;100208.75;5355466;27;20065;-63
2022/04/24 10:41:15;;;;;;;12.13;9.90;;;;;;;16.64;44.04;100196.47;5349878;27;20556;-63
2022/04/24 10:43:49;;;;;;;14.25;9.75;;;;;;;16.63;41.09;100210.91;5359477;27;20074;-64
2022/04/24 10:46:29;;;;;;;10.77;8.73;;;;;;;16.70;43.16;100205.66;5360194;27;20030;-63
2022/04/24 10:49:13;;;;;;;9.25;8.30;;;;;;;16.79;42.84;100211.88;5350916;27;20031;-63
2022/04/24 10:51:57;;;;;;;10.00;8.45;;;;;;;16.84;41.56;100225.72;5349668;27;20030;-64
2022/04/24 10:54:32;;;;;;;10.63;8.02;;;;;;;16.85;41.24;100203.13;5349580;27;20019;-64
2022/04/24 10:57:17;;;;;;;9.48;8.23;;;;;;;16.81;40.64;100215.25;5350574;27;20031;-64
2022/04/24 10:59:52;;;;;;;11.18;8.20;;;;;;;16.78;40.92;100211.06;5350188;27;20181;-63
2022/04/24 11:02:30;;;;;;;9.40;7.00;;;;;;;16.96;41.34;100213.53;5351008;27;20034;-64
2022/04/24 11:05:06;;;;;;;9.18;7.32;;;;;;;16.97;41.18;100208.97;5355303;27;20113;-63
2022/04/24 11:07:38;;;;;;;9.55;7.30;;;;;;;16.97;41.80;100208.97;5354257;27;20693;-63
2022/04/24 11:10:11;;;;;;;9.73;8.07;;;;;;;16.94;40.08;100209.34;5353563;27;20043;-63
2022/04/24 11:12:42;;;;;;;8.80;7.37;;;;;;;17.01;39.73;100221.13;5344907;27;20041;-63
2022/04/24 11:15:15;;;;;;;10.80;7.88;;;;;;;17.02;42.10;100228.16;5354604;27;20292;-63
2022/04/24 11:17:46;;;;;;;9.13;7.85;;;;;;;17.06;41.36;100216.03;5356166;27;20039;-63
2022/04/24 11:20:19;;;;;;;13.55;8.05;;;;;;;17.02;41.83;100210.13;5358400;27;20058;-63
2022/04/24 11:22:52;;;;;;;9.18;7.85;;;;;;;17.12;40.84;100207.22;5334050;27;20042;-63
2022/04/24 11:25:25;;;;;;;10.03;7.80;;;;;;;17.10;42.20;100219.22;5359342;27;20026;-63
2022/04/24 11:27:58;;;;;;;10.90;7.93;;;;;;;17.15;41.26;100206.06;5357514;27;20519;-63
2022/04/24 11:30:32;;;;;;;10.05;7.63;;;;;;;17.22;42.00;100207.88;5351717;27;20101;-63
2022/04/24 11:33:05;;;;;;;10.10;7.53;;;;;;;17.29;40.60;100213.38;5356698;27;20167;-63
2022/04/24 11:35:39;;;;;;;9.70;7.13;;;;;;;17.33;41.53;100221.97;5359581;27;20038;-63
2022/04/24 11:38:13;;;;;;;8.40;7.50;;;;;;;17.32;40.76;100212.22;5360759;27;20455;-63
2022/04/24 11:40:48;;;;;;;9.75;7.45;;;;;;;17.41;41.75;100198.50;5354972;27;20022;-63
2022/04/24 11:43:19;;;;;;;8.68;7.22;;;;;;;17.38;40.23;100223.09;5354230;27;20131;-63
2022/04/24 11:51:34;;;;;;;10.60;7.43;;;;;;;17.58;40.96;100209.16;5352291;27;20042;-63
2022/04/24 11:54:09;;;;;;;;;;;;;;;17.54;41.04;100205.16;5354395;27;20038;-64